createdAt,value
2017-06-24T00:00:38.291Z,1005.29
2017-06-24T00:01:18.822Z,1005.28
2017-06-24T00:01:59.348Z,1005.32
2017-06-24T00:02:39.879Z,1005.25
2017-06-24T00:03:20.426Z,1005.29
2017-06-24T00:04:00.961Z,1005.29
2017-06-24T00:04:41.496Z,1005.25
2017-06-24T00:05:22.003Z,1005.25
2017-06-24T00:06:02.601Z,1005.23
2017-06-24T00:06:43.184Z,1005.25
2017-06-24T00:07:23.704Z,1005.28
2017-06-24T00:08:04.239Z,1005.24
2017-06-24T00:08:44.781Z,1005.28
2017-06-24T00:09:25.329Z,1005.28
2017-06-24T00:10:05.845Z,1005.27
2017-06-24T00:10:46.380Z,1005.26
2017-06-24T00:11:26.906Z,1005.22
2017-06-24T00:12:07.424Z,1005.22
2017-06-24T00:12:47.962Z,1005.25
2017-06-24T00:13:28.498Z,1005.23
2017-06-24T00:14:09.037Z,1005.22
2017-06-24T00:14:49.562Z,1005.2
2017-06-24T00:15:30.083Z,1005.2
2017-06-24T00:16:10.606Z,1005.17
2017-06-24T00:16:51.134Z,1005.21
2017-06-24T00:17:31.667Z,1005.22
2017-06-24T00:18:12.194Z,1005.22
2017-06-24T00:18:52.726Z,1005.23
2017-06-24T00:19:33.253Z,1005.23
2017-06-24T00:20:13.794Z,1005.25
2017-06-24T00:20:54.343Z,1005.23
2017-06-24T00:21:34.875Z,1005.24
2017-06-24T00:22:15.400Z,1005.25
2017-06-24T00:22:55.922Z,1005.24
2017-06-24T00:23:36.446Z,1005.19
2017-06-24T00:24:16.970Z,1005.2
2017-06-24T00:24:57.490Z,1005.2
2017-06-24T00:25:38.013Z,1005.22
2017-06-24T00:26:18.542Z,1005.2
2017-06-24T00:26:59.095Z,1005.23
2017-06-24T00:27:39.612Z,1005.18
2017-06-24T00:28:20.145Z,1005.19
2017-06-24T00:29:00.656Z,1005.23
2017-06-24T00:29:41.184Z,1005.27
2017-06-24T00:30:21.719Z,1005.21
2017-06-24T00:31:02.258Z,1005.22
2017-06-24T00:31:42.797Z,1005.23
2017-06-24T00:32:23.326Z,1005.2
2017-06-24T00:33:03.852Z,1005.24
2017-06-24T00:33:44.383Z,1005.23
2017-06-24T00:34:24.915Z,1005.26
2017-06-24T00:35:05.440Z,1005.24
2017-06-24T00:35:45.975Z,1005.23
2017-06-24T00:36:26.512Z,1005.28
2017-06-24T00:37:07.036Z,1005.25
2017-06-24T00:37:47.572Z,1005.27
2017-06-24T00:38:28.090Z,1005.29
2017-06-24T00:39:08.624Z,1005.23
2017-06-24T00:39:49.153Z,1005.25
2017-06-24T00:40:29.705Z,1005.28
2017-06-24T00:41:10.214Z,1005.24
2017-06-24T00:41:50.744Z,1005.27
2017-06-24T00:42:31.269Z,1005.23
2017-06-24T00:43:11.810Z,1005.26
2017-06-24T00:43:52.341Z,1005.26
2017-06-24T00:44:32.872Z,1005.27
2017-06-24T00:45:13.398Z,1005.29
2017-06-24T00:45:53.925Z,1005.26
2017-06-24T00:46:34.450Z,1005.25
2017-06-24T00:47:14.973Z,1005.26
2017-06-24T00:47:55.520Z,1005.25
2017-06-24T00:48:36.070Z,1005.29
2017-06-24T00:49:16.611Z,1005.25
2017-06-24T00:49:57.129Z,1005.25
2017-06-24T00:50:37.655Z,1005.26
2017-06-24T00:51:18.178Z,1005.24
2017-06-24T00:51:58.714Z,1005.25
2017-06-24T00:52:39.251Z,1005.27
2017-06-24T00:53:19.792Z,1005.27
2017-06-24T00:54:00.306Z,1005.25
2017-06-24T00:54:40.841Z,1005.29
2017-06-24T00:55:21.387Z,1005.26
2017-06-24T00:56:01.945Z,1005.28
2017-06-24T00:56:42.472Z,1005.25
2017-06-24T00:57:23.010Z,1005.27
2017-06-24T00:58:03.525Z,1005.25
2017-06-24T00:58:44.047Z,1005.25
2017-06-24T00:59:24.577Z,1005.26
2017-06-24T01:00:05.111Z,1005.25
2017-06-24T01:00:45.632Z,1005.26
2017-06-24T01:01:26.175Z,1005.21
2017-06-24T01:02:06.688Z,1005.27
2017-06-24T01:02:47.204Z,1005.23
2017-06-24T01:03:27.755Z,1005.22
2017-06-24T01:04:08.280Z,1005.27
2017-06-24T01:04:48.808Z,1005.21
2017-06-24T01:05:29.335Z,1005.22
2017-06-24T01:06:09.857Z,1005.21
2017-06-24T01:06:50.383Z,1005.22
2017-06-24T01:07:30.908Z,1005.23
2017-06-24T01:08:11.438Z,1005.25
2017-06-24T01:08:51.960Z,1005.26
2017-06-24T01:09:32.506Z,1005.23
2017-06-24T01:10:13.039Z,1005.27
2017-06-24T01:10:53.580Z,1005.29
2017-06-24T01:11:34.107Z,1005.26
2017-06-24T01:12:14.655Z,1005.27
2017-06-24T01:12:55.194Z,1005.22
2017-06-24T01:13:35.728Z,1005.27
2017-06-24T01:14:16.265Z,1005.3
2017-06-24T01:14:56.798Z,1005.3
2017-06-24T01:15:37.332Z,1005.28
2017-06-24T01:16:17.859Z,1005.31
2017-06-24T01:16:58.390Z,1005.3
2017-06-24T01:17:38.924Z,1005.23
2017-06-24T01:18:19.447Z,1005.26
2017-06-24T01:18:59.983Z,1005.22
2017-06-24T01:19:40.517Z,1005.29
2017-06-24T01:20:21.040Z,1005.29
2017-06-24T01:21:01.578Z,1005.3
2017-06-24T01:21:42.122Z,1005.25
2017-06-24T01:22:22.638Z,1005.3
2017-06-24T01:23:03.195Z,1005.3
2017-06-24T01:23:43.717Z,1005.32
2017-06-24T01:24:24.267Z,1005.32
2017-06-24T01:25:04.798Z,1005.32
2017-06-24T01:25:45.318Z,1005.32
2017-06-24T01:26:25.848Z,1005.3
2017-06-24T01:27:06.375Z,1005.28
2017-06-24T01:27:46.905Z,1005.27
2017-06-24T01:28:27.437Z,1005.26
2017-06-24T01:29:07.964Z,1005.27
2017-06-24T01:29:48.499Z,1005.28
2017-06-24T01:30:29.016Z,1005.26
2017-06-24T01:31:09.545Z,1005.32
2017-06-24T01:31:50.069Z,1005.27
2017-06-24T01:32:30.595Z,1005.28
2017-06-24T01:33:11.125Z,1005.28
2017-06-24T01:33:51.650Z,1005.29
2017-06-24T01:34:32.170Z,1005.27
2017-06-24T01:35:12.695Z,1005.28
2017-06-24T01:35:53.221Z,1005.33
2017-06-24T01:36:33.755Z,1005.34
2017-06-24T01:37:14.284Z,1005.33
2017-06-24T01:37:54.824Z,1005.34
2017-06-24T01:38:35.347Z,1005.34
2017-06-24T01:39:15.882Z,1005.27
2017-06-24T01:39:56.418Z,1005.36
2017-06-24T01:40:36.950Z,1005.34
2017-06-24T01:41:17.483Z,1005.34
2017-06-24T01:41:58.001Z,1005.36
2017-06-24T01:42:38.530Z,1005.35
2017-06-24T01:43:19.058Z,1005.34
2017-06-24T01:43:59.595Z,1005.37
2017-06-24T01:44:40.117Z,1005.35
2017-06-24T01:45:20.648Z,1005.39
2017-06-24T01:46:01.186Z,1005.42
2017-06-24T01:46:41.733Z,1005.4
2017-06-24T01:47:22.284Z,1005.41
2017-06-24T01:48:02.819Z,1005.4
2017-06-24T01:48:43.342Z,1005.4
2017-06-24T01:49:23.867Z,1005.4
2017-06-24T01:50:04.396Z,1005.41
2017-06-24T01:50:44.923Z,1005.4
2017-06-24T01:51:25.457Z,1005.37
2017-06-24T01:52:05.981Z,1005.44
2017-06-24T01:52:46.531Z,1005.41
2017-06-24T01:53:27.046Z,1005.4
2017-06-24T01:54:07.581Z,1005.4
2017-06-24T01:54:48.109Z,1005.42
2017-06-24T01:55:28.682Z,1005.43
2017-06-24T01:56:09.209Z,1005.43
2017-06-24T01:56:49.730Z,1005.48
2017-06-24T01:57:30.266Z,1005.47
2017-06-24T01:58:10.796Z,1005.47
2017-06-24T01:58:51.328Z,1005.45
2017-06-24T01:59:31.852Z,1005.47
2017-06-24T02:00:12.376Z,1005.48
2017-06-24T02:00:52.887Z,1005.45
2017-06-24T02:01:33.433Z,1005.45
2017-06-24T02:02:13.958Z,1005.43
2017-06-24T02:02:54.497Z,1005.41
2017-06-24T02:03:35.017Z,1005.43
2017-06-24T02:04:15.562Z,1005.43
2017-06-24T02:04:56.097Z,1005.41
2017-06-24T02:05:36.639Z,1005.39
2017-06-24T02:06:17.172Z,1005.43
2017-06-24T02:06:57.704Z,1005.4
2017-06-24T02:07:38.222Z,1005.44
2017-06-24T02:08:18.752Z,1005.46
2017-06-24T02:08:59.283Z,1005.42
2017-06-24T02:09:39.819Z,1005.43
2017-06-24T02:10:20.359Z,1005.42
2017-06-24T02:11:00.880Z,1005.43
2017-06-24T02:11:41.398Z,1005.46
2017-06-24T02:12:21.926Z,1005.45
2017-06-24T02:13:02.454Z,1005.39
2017-06-24T02:13:42.978Z,1005.41
2017-06-24T02:14:23.506Z,1005.43
2017-06-24T02:15:04.028Z,1005.4
2017-06-24T02:15:44.564Z,1005.42
2017-06-24T02:16:25.096Z,1005.43
2017-06-24T02:17:05.620Z,1005.45
2017-06-24T02:17:46.142Z,1005.42
2017-06-24T02:18:26.664Z,1005.43
2017-06-24T02:19:07.187Z,1005.44
2017-06-24T02:19:47.723Z,1005.43
2017-06-24T02:20:28.300Z,1005.41
2017-06-24T02:22:21.381Z,1005.42
2017-06-24T02:23:01.905Z,1005.43
2017-06-24T02:23:42.440Z,1005.44
2017-06-24T02:24:22.957Z,1005.39
2017-06-24T02:25:03.477Z,1005.44
2017-06-24T02:25:43.994Z,1005.41
2017-06-24T02:26:24.509Z,1005.4
2017-06-24T02:27:05.056Z,1005.44
2017-06-24T02:27:45.595Z,1005.46
2017-06-24T02:28:26.126Z,1005.43
2017-06-24T02:29:06.645Z,1005.43
2017-06-24T02:29:47.170Z,1005.4
2017-06-24T02:30:27.729Z,1005.37
2017-06-24T02:31:08.254Z,1005.34
2017-06-24T02:31:48.787Z,1005.36
2017-06-24T02:32:29.310Z,1005.35
2017-06-24T02:33:09.850Z,1005.31
2017-06-24T02:33:50.368Z,1005.34
2017-06-24T02:34:30.897Z,1005.36
2017-06-24T02:35:11.427Z,1005.29
2017-06-24T02:35:51.962Z,1005.35
2017-06-24T02:36:32.484Z,1005.34
2017-06-24T02:37:13.000Z,1005.34
2017-06-24T02:37:53.518Z,1005.33
2017-06-24T02:38:34.056Z,1005.28
2017-06-24T02:39:14.576Z,1005.27
2017-06-24T02:39:55.094Z,1005.26
2017-06-24T02:40:35.616Z,1005.26
2017-06-24T02:41:16.154Z,1005.28
2017-06-24T02:41:56.674Z,1005.25
2017-06-24T02:42:37.209Z,1005.29
2017-06-24T02:43:17.742Z,1005.3
2017-06-24T02:43:58.274Z,1005.28
2017-06-24T02:44:38.800Z,1005.25
2017-06-24T02:45:19.344Z,1005.24
2017-06-24T02:45:59.859Z,1005.24
2017-06-24T02:46:40.397Z,1005.28
2017-06-24T02:47:20.925Z,1005.24
2017-06-24T02:48:01.463Z,1005.25
2017-06-24T02:48:41.996Z,1005.26
2017-06-24T02:49:22.513Z,1005.25
2017-06-24T02:50:03.042Z,1005.21
2017-06-24T02:50:43.574Z,1005.21
2017-06-24T02:51:24.096Z,1005.24
2017-06-24T02:52:04.627Z,1005.26
2017-06-24T02:52:45.152Z,1005.25
2017-06-24T02:53:25.679Z,1005.27
2017-06-24T02:54:06.206Z,1005.23
2017-06-24T02:54:46.722Z,1005.22
2017-06-24T02:55:27.240Z,1005.24
2017-06-24T02:56:07.778Z,1005.19
2017-06-24T02:56:48.293Z,1005.19
2017-06-24T02:57:28.815Z,1005.21
2017-06-24T02:58:09.343Z,1005.21
2017-06-24T02:58:49.892Z,1005.26
2017-06-24T02:59:30.424Z,1005.23
2017-06-24T03:00:10.950Z,1005.25
2017-06-24T03:00:51.484Z,1005.28
2017-06-24T03:01:32.017Z,1005.28
2017-06-24T03:02:12.543Z,1005.26
2017-06-24T03:02:53.073Z,1005.3
2017-06-24T03:03:33.596Z,1005.27
2017-06-24T03:04:14.161Z,1005.29
2017-06-24T03:04:54.677Z,1005.29
2017-06-24T03:05:35.195Z,1005.24
2017-06-24T03:06:15.728Z,1005.25
2017-06-24T03:06:56.268Z,1005.26
2017-06-24T03:07:36.798Z,1005.28
2017-06-24T03:08:17.308Z,1005.28
2017-06-24T03:08:57.829Z,1005.29
2017-06-24T03:09:38.367Z,1005.32
2017-06-24T03:10:18.891Z,1005.31
2017-06-24T03:10:59.420Z,1005.3
2017-06-24T03:11:39.937Z,1005.31
2017-06-24T03:12:20.468Z,1005.27
2017-06-24T03:13:00.991Z,1005.32
2017-06-24T03:13:41.513Z,1005.34
2017-06-24T03:14:22.040Z,1005.37
2017-06-24T03:15:02.573Z,1005.37
2017-06-24T03:15:43.104Z,1005.38
2017-06-24T03:16:23.626Z,1005.35
2017-06-24T03:17:04.154Z,1005.38
2017-06-24T03:17:44.674Z,1005.38
2017-06-24T03:18:25.198Z,1005.42
2017-06-24T03:19:05.735Z,1005.41
2017-06-24T03:19:46.272Z,1005.38
2017-06-24T03:20:26.808Z,1005.42
2017-06-24T03:21:07.351Z,1005.39
2017-06-24T03:21:47.856Z,1005.37
2017-06-24T03:22:28.405Z,1005.35
2017-06-24T03:23:08.945Z,1005.39
2017-06-24T03:23:49.466Z,1005.4
2017-06-24T03:24:29.986Z,1005.4
2017-06-24T03:25:10.507Z,1005.34
2017-06-24T03:25:51.126Z,1005.35
2017-06-24T03:26:31.620Z,1005.32
2017-06-24T03:27:12.157Z,1005.35
2017-06-24T03:27:52.678Z,1005.34
2017-06-24T03:28:33.220Z,1005.31
2017-06-24T03:29:13.737Z,1005.35
2017-06-24T03:29:54.278Z,1005.29
2017-06-24T03:30:34.813Z,1005.33
2017-06-24T03:31:15.339Z,1005.28
2017-06-24T03:31:55.860Z,1005.34
2017-06-24T03:32:36.381Z,1005.33
2017-06-24T03:33:16.912Z,1005.35
2017-06-24T03:33:57.429Z,1005.36
2017-06-24T03:34:37.959Z,1005.36
2017-06-24T03:35:18.483Z,1005.32
2017-06-24T03:35:59.017Z,1005.36
2017-06-24T03:36:39.535Z,1005.35
2017-06-24T03:37:20.071Z,1005.31
2017-06-24T03:38:00.610Z,1005.31
2017-06-24T03:38:41.137Z,1005.34
2017-06-24T03:39:21.663Z,1005.37
2017-06-24T03:40:02.192Z,1005.41
2017-06-24T03:40:42.710Z,1005.4
2017-06-24T03:41:23.559Z,1005.45
2017-06-24T03:42:03.920Z,1005.42
2017-06-24T03:42:44.446Z,1005.41
2017-06-24T03:43:24.971Z,1005.43
2017-06-24T03:44:05.505Z,1005.42
2017-06-24T03:44:46.026Z,1005.42
2017-06-24T03:45:26.549Z,1005.43
2017-06-24T03:46:07.082Z,1005.44
2017-06-24T03:46:47.604Z,1005.4
2017-06-24T03:47:28.133Z,1005.43
2017-06-24T03:48:08.663Z,1005.4
2017-06-24T03:48:49.198Z,1005.49
2017-06-24T03:49:29.721Z,1005.43
2017-06-24T03:50:10.277Z,1005.47
2017-06-24T03:50:50.781Z,1005.44
2017-06-24T03:51:31.300Z,1005.45
2017-06-24T03:52:11.826Z,1005.45
2017-06-24T03:52:52.365Z,1005.44
2017-06-24T03:53:32.894Z,1005.41
2017-06-24T03:54:13.440Z,1005.43
2017-06-24T03:54:53.956Z,1005.39
2017-06-24T03:55:34.488Z,1005.44
2017-06-24T03:56:15.020Z,1005.47
2017-06-24T03:56:55.548Z,1005.46
2017-06-24T03:57:36.067Z,1005.47
2017-06-24T03:58:16.592Z,1005.42
2017-06-24T03:58:57.107Z,1005.42
2017-06-24T03:59:37.622Z,1005.45
2017-06-24T04:00:18.146Z,1005.46
2017-06-24T04:00:58.677Z,1005.47
2017-06-24T04:01:39.199Z,1005.48
2017-06-24T04:02:19.724Z,1005.49
2017-06-24T04:03:00.241Z,1005.5
2017-06-24T04:03:40.775Z,1005.47
2017-06-24T04:04:21.292Z,1005.51
2017-06-24T04:05:01.824Z,1005.5
2017-06-24T04:05:42.371Z,1005.5
2017-06-24T04:06:22.913Z,1005.53
2017-06-24T04:07:03.433Z,1005.52
2017-06-24T04:07:43.960Z,1005.46
2017-06-24T04:08:24.488Z,1005.46
2017-06-24T04:09:05.017Z,1005.51
2017-06-24T04:09:45.538Z,1005.49
2017-06-24T04:10:26.070Z,1005.51
2017-06-24T04:11:06.586Z,1005.51
2017-06-24T04:11:47.109Z,1005.48
2017-06-24T04:12:27.643Z,1005.57
2017-06-24T04:13:08.169Z,1005.57
2017-06-24T04:13:48.713Z,1005.59
2017-06-24T04:14:29.239Z,1005.56
2017-06-24T04:15:09.768Z,1005.58
2017-06-24T04:15:50.302Z,1005.56
2017-06-24T04:16:30.831Z,1005.55
2017-06-24T04:17:11.361Z,1005.54
2017-06-24T04:17:51.893Z,1005.52
2017-06-24T04:18:32.428Z,1005.54
2017-06-24T04:19:13.046Z,1005.57
2017-06-24T04:19:53.582Z,1005.53
2017-06-24T04:20:34.114Z,1005.54
2017-06-24T04:21:14.636Z,1005.53
2017-06-24T04:21:55.158Z,1005.53
2017-06-24T04:22:35.697Z,1005.57
2017-06-24T04:23:16.216Z,1005.57
2017-06-24T04:23:56.749Z,1005.55
2017-06-24T04:24:37.292Z,1005.57
2017-06-24T04:25:17.814Z,1005.52
2017-06-24T04:25:58.324Z,1005.55
2017-06-24T04:26:38.845Z,1005.56
2017-06-24T04:27:19.369Z,1005.55
2017-06-24T04:27:59.908Z,1005.55
2017-06-24T04:28:40.441Z,1005.49
2017-06-24T04:29:20.965Z,1005.51
2017-06-24T04:30:01.485Z,1005.56
2017-06-24T04:30:42.002Z,1005.54
2017-06-24T04:31:22.536Z,1005.54
2017-06-24T04:32:03.057Z,1005.55
2017-06-24T04:32:43.586Z,1005.57
2017-06-24T04:33:24.114Z,1005.55
2017-06-24T04:34:04.661Z,1005.59
2017-06-24T04:34:45.190Z,1005.6
2017-06-24T04:35:25.711Z,1005.61
2017-06-24T04:36:06.262Z,1005.57
2017-06-24T04:36:46.788Z,1005.58
2017-06-24T04:37:27.310Z,1005.63
2017-06-24T04:38:07.831Z,1005.64
2017-06-24T04:38:48.367Z,1005.66
2017-06-24T04:39:28.888Z,1005.66
2017-06-24T04:40:09.519Z,1005.63
2017-06-24T04:40:50.060Z,1005.61
2017-06-24T04:41:30.565Z,1005.6
2017-06-24T04:42:11.108Z,1005.58
2017-06-24T04:42:51.623Z,1005.61
2017-06-24T04:43:32.160Z,1005.7
2017-06-24T04:44:12.697Z,1005.77
2017-06-24T04:44:53.231Z,1005.67
2017-06-24T04:45:33.749Z,1005.8
2017-06-24T04:46:14.292Z,1005.71
2017-06-24T04:46:54.829Z,1005.67
2017-06-24T04:47:35.357Z,1005.73
2017-06-24T04:48:15.887Z,1005.66
2017-06-24T04:48:56.411Z,1005.64
2017-06-24T04:49:36.924Z,1005.67
2017-06-24T04:50:17.443Z,1005.64
2017-06-24T04:50:57.972Z,1005.66
2017-06-24T04:51:38.513Z,1005.64
2017-06-24T04:52:19.029Z,1005.66
2017-06-24T04:52:59.552Z,1005.68
2017-06-24T04:53:40.080Z,1005.64
2017-06-24T04:54:20.604Z,1005.65
2017-06-24T04:55:01.115Z,1005.64
2017-06-24T04:55:41.712Z,1005.71
2017-06-24T04:56:22.233Z,1005.69
2017-06-24T04:57:02.780Z,1005.68
2017-06-24T04:57:43.368Z,1005.71
2017-06-24T04:58:23.893Z,1005.75
2017-06-24T04:59:04.460Z,1005.78
2017-06-24T04:59:44.982Z,1005.83
2017-06-24T05:00:25.515Z,1005.8
2017-06-24T05:01:06.050Z,1005.79
2017-06-24T05:01:46.763Z,1005.83
2017-06-24T05:02:27.284Z,1005.81
2017-06-24T05:03:07.825Z,1005.83
2017-06-24T05:03:48.351Z,1005.83
2017-06-24T05:04:28.874Z,1005.81
2017-06-24T05:05:09.389Z,1005.78
2017-06-24T05:05:49.937Z,1005.79
2017-06-24T05:06:30.503Z,1005.83
2017-06-24T05:07:11.038Z,1005.86
2017-06-24T05:07:51.654Z,1005.88
2017-06-24T05:08:32.140Z,1005.82
2017-06-24T05:09:12.666Z,1005.83
2017-06-24T05:09:53.455Z,1005.83
2017-06-24T05:10:33.980Z,1005.82
2017-06-24T05:11:14.508Z,1005.83
2017-06-24T05:11:55.023Z,1005.83
2017-06-24T05:12:35.562Z,1005.82
2017-06-24T05:13:16.086Z,1005.8
2017-06-24T05:13:56.656Z,1005.76
2017-06-24T05:14:37.186Z,1005.8
2017-06-24T05:15:17.700Z,1005.82
2017-06-24T05:15:58.217Z,1005.83
2017-06-24T05:16:38.745Z,1005.81
2017-06-24T05:17:19.276Z,1005.83
2017-06-24T05:17:59.806Z,1005.77
2017-06-24T05:18:40.329Z,1005.77
2017-06-24T05:19:20.868Z,1005.8
2017-06-24T05:20:01.393Z,1005.8
2017-06-24T05:20:42.003Z,1005.8
2017-06-24T05:21:22.431Z,1005.85
2017-06-24T05:22:02.959Z,1005.8
2017-06-24T05:22:43.534Z,1005.75
2017-06-24T05:23:24.070Z,1005.8
2017-06-24T05:24:04.598Z,1005.81
2017-06-24T05:24:45.124Z,1005.81
2017-06-24T05:25:25.646Z,1005.82
2017-06-24T05:26:06.187Z,1005.86
2017-06-24T05:26:46.723Z,1005.8
2017-06-24T05:27:27.261Z,1005.79
2017-06-24T05:28:07.791Z,1005.79
2017-06-24T05:28:48.315Z,1005.8
2017-06-24T05:29:28.847Z,1005.77
2017-06-24T05:30:09.375Z,1005.76
2017-06-24T05:30:49.898Z,1005.78
2017-06-24T05:31:30.414Z,1005.75
2017-06-24T05:32:10.937Z,1005.81
2017-06-24T05:32:51.453Z,1005.84
2017-06-24T05:33:31.980Z,1005.83
2017-06-24T05:34:12.516Z,1005.82
2017-06-24T05:34:53.048Z,1005.82
2017-06-24T05:35:33.585Z,1005.8
2017-06-24T05:36:14.116Z,1005.79
2017-06-24T05:36:54.641Z,1005.8
2017-06-24T05:37:35.186Z,1005.82
2017-06-24T05:38:15.711Z,1005.8
2017-06-24T05:38:56.232Z,1005.85
2017-06-24T05:39:36.765Z,1005.85
2017-06-24T05:40:17.284Z,1005.85
2017-06-24T05:40:57.817Z,1005.87
2017-06-24T05:41:38.339Z,1005.86
2017-06-24T05:42:18.906Z,1005.86
2017-06-24T05:42:59.403Z,1005.84
2017-06-24T05:43:39.944Z,1005.85
2017-06-24T05:44:20.477Z,1005.88
2017-06-24T05:45:01.004Z,1005.87
2017-06-24T05:45:41.557Z,1005.84
2017-06-24T05:46:22.084Z,1005.89
2017-06-24T05:47:02.625Z,1005.84
2017-06-24T05:47:43.160Z,1005.84
2017-06-24T05:48:23.686Z,1005.84
2017-06-24T05:49:04.229Z,1005.82
2017-06-24T05:49:44.762Z,1005.85
2017-06-24T05:50:25.281Z,1005.8
2017-06-24T05:51:05.813Z,1005.83
2017-06-24T05:51:46.350Z,1005.82
2017-06-24T05:52:26.884Z,1005.84
2017-06-24T05:53:07.438Z,1005.86
2017-06-24T05:53:47.965Z,1005.87
2017-06-24T05:54:28.503Z,1005.9
2017-06-24T05:55:09.040Z,1005.86
2017-06-24T05:55:49.570Z,1005.86
2017-06-24T05:56:30.097Z,1005.87
2017-06-24T05:57:10.622Z,1005.85
2017-06-24T05:57:51.194Z,1005.87
2017-06-24T05:58:31.695Z,1005.86
2017-06-24T05:59:12.243Z,1005.83
2017-06-24T05:59:52.785Z,1005.84
2017-06-24T06:00:33.292Z,1005.89
2017-06-24T06:01:13.856Z,1005.85
2017-06-24T06:01:54.458Z,1005.87
2017-06-24T06:02:34.997Z,1005.84
2017-06-24T06:03:15.518Z,1005.86
2017-06-24T06:03:56.051Z,1005.83
2017-06-24T06:04:36.582Z,1005.86
2017-06-24T06:05:17.116Z,1005.9
2017-06-24T06:05:57.644Z,1005.86
2017-06-24T06:06:38.198Z,1005.88
2017-06-24T06:07:18.730Z,1005.88
2017-06-24T06:07:59.272Z,1005.85
2017-06-24T06:08:39.805Z,1005.91
2017-06-24T06:09:20.355Z,1005.91
2017-06-24T06:10:00.914Z,1005.92
2017-06-24T06:10:41.430Z,1005.91
2017-06-24T06:11:21.977Z,1005.97
2017-06-24T06:12:02.551Z,1005.93
2017-06-24T06:12:43.078Z,1005.94
2017-06-24T06:13:23.603Z,1005.96
2017-06-24T06:14:04.121Z,1005.88
2017-06-24T06:14:44.636Z,1005.91
2017-06-24T06:15:25.165Z,1005.9
2017-06-24T06:16:05.703Z,1005.91
2017-06-24T06:16:46.239Z,1005.87
2017-06-24T06:17:26.773Z,1005.89
2017-06-24T06:18:07.271Z,1005.88
2017-06-24T06:18:47.807Z,1005.85
2017-06-24T06:19:28.358Z,1005.9
2017-06-24T06:20:08.900Z,1005.87
2017-06-24T06:20:49.431Z,1005.93
2017-06-24T06:21:29.963Z,1005.9
2017-06-24T06:22:10.486Z,1005.9
2017-06-24T06:22:51.009Z,1005.87
2017-06-24T06:23:31.521Z,1005.88
2017-06-24T06:24:13.544Z,1005.8
2017-06-24T06:24:54.093Z,1005.86
2017-06-24T06:25:34.635Z,1005.86
2017-06-24T06:26:15.162Z,1005.84
2017-06-24T06:26:55.740Z,1005.87
2017-06-24T06:27:36.261Z,1005.89
2017-06-24T06:28:16.778Z,1005.89
2017-06-24T06:28:57.688Z,1005.9
2017-06-24T06:29:38.248Z,1005.9
2017-06-24T06:30:18.796Z,1005.87
2017-06-24T06:30:59.344Z,1005.9
2017-06-24T06:31:40.389Z,1005.89
2017-06-24T06:32:21.083Z,1005.88
2017-06-24T06:33:01.642Z,1005.85
2017-06-24T06:33:42.148Z,1005.9
2017-06-24T06:34:22.667Z,1005.91
2017-06-24T06:35:03.193Z,1005.92
2017-06-24T06:35:43.737Z,1005.93
2017-06-24T06:36:24.626Z,1005.96
2017-06-24T06:37:05.183Z,1005.98
2017-06-24T06:37:45.732Z,1005.97
2017-06-24T06:38:26.257Z,1005.94
2017-06-24T06:39:06.771Z,1005.96
2017-06-24T06:39:47.324Z,1005.96
2017-06-24T06:40:27.878Z,1005.96
2017-06-24T06:41:08.404Z,1005.96
2017-06-24T06:41:48.934Z,1005.94
2017-06-24T06:42:29.493Z,1005.96
2017-06-24T06:43:10.025Z,1005.95
2017-06-24T06:43:50.541Z,1005.98
2017-06-24T06:44:31.070Z,1005.99
2017-06-24T06:45:11.605Z,1005.97
2017-06-24T06:45:52.140Z,1005.94
2017-06-24T06:46:32.663Z,1005.95
2017-06-24T06:47:13.366Z,1005.89
2017-06-24T06:47:53.896Z,1005.87
2017-06-24T06:48:34.425Z,1005.91
2017-06-24T06:49:14.957Z,1005.93
2017-06-24T06:49:55.485Z,1005.87
2017-06-24T06:50:36.011Z,1005.92
2017-06-24T06:51:16.545Z,1005.9
2017-06-24T06:51:57.074Z,1005.87
2017-06-24T06:52:37.600Z,1005.89
2017-06-24T06:53:18.133Z,1005.87
2017-06-24T06:53:58.690Z,1005.9
2017-06-24T06:54:39.186Z,1005.94
2017-06-24T06:55:19.727Z,1005.91
2017-06-24T06:56:00.323Z,1005.92
2017-06-24T06:56:40.866Z,1005.95
2017-06-24T06:57:21.406Z,1005.93
2017-06-24T06:58:01.944Z,1005.91
2017-06-24T06:58:42.476Z,1005.93
2017-06-24T06:59:23.005Z,1005.93
2017-06-24T07:00:03.552Z,1005.89
2017-06-24T07:00:44.194Z,1005.9
2017-06-24T07:01:24.734Z,1005.9
2017-06-24T07:02:05.302Z,1005.92
2017-06-24T07:02:45.847Z,1005.87
2017-06-24T07:03:26.374Z,1005.9
2017-06-24T07:04:06.903Z,1005.95
2017-06-24T07:04:47.432Z,1005.94
2017-06-24T07:05:27.958Z,1005.9
2017-06-24T07:06:11.172Z,1005.87
2017-06-24T07:06:52.262Z,1005.91
2017-06-24T07:07:32.784Z,1005.86
2017-06-24T07:08:14.887Z,1005.87
2017-06-24T07:08:55.439Z,1005.91
2017-06-24T07:09:35.965Z,1005.9
2017-06-24T07:10:16.476Z,1005.9
2017-06-24T07:10:57.030Z,1005.88
2017-06-24T07:11:40.101Z,1005.93
2017-06-24T07:12:20.583Z,1005.9
2017-06-24T07:13:01.090Z,1005.91
2017-06-24T07:13:41.597Z,1005.91
2017-06-24T07:14:22.114Z,1005.93
2017-06-24T07:15:03.009Z,1005.92
2017-06-24T07:15:43.499Z,1005.89
2017-06-24T07:16:24.043Z,1005.91
2017-06-24T07:17:04.526Z,1005.91
2017-06-24T07:17:45.075Z,1005.94
2017-06-24T07:18:25.564Z,1005.9
2017-06-24T07:19:06.054Z,1005.94
2017-06-24T07:19:46.529Z,1005.95
2017-06-24T07:20:27.062Z,1005.98
2017-06-24T07:21:07.555Z,1005.96
2017-06-24T07:21:48.408Z,1005.96
2017-06-24T07:22:28.698Z,1005.95
2017-06-24T07:23:09.155Z,1005.91
2017-06-24T07:23:49.714Z,1005.95
2017-06-24T07:24:30.198Z,1005.91
2017-06-24T07:25:10.748Z,1005.93
2017-06-24T07:25:51.245Z,1005.92
2017-06-24T07:26:31.725Z,1005.9
2017-06-24T07:27:12.258Z,1005.89
2017-06-24T07:27:52.721Z,1005.93
2017-06-24T07:28:33.192Z,1005.93
2017-06-24T07:29:13.691Z,1005.93
2017-06-24T07:31:49.030Z,1006
2017-06-24T07:32:29.703Z,1005.97
2017-06-24T07:33:10.250Z,1005.95
2017-06-24T07:33:50.773Z,1006
2017-06-24T07:34:31.298Z,1005.99
2017-06-24T07:35:11.872Z,1005.98
2017-06-24T07:35:52.402Z,1005.98
2017-06-24T07:36:32.920Z,1005.99
2017-06-24T07:37:13.466Z,1005.98
2017-06-24T07:37:53.956Z,1005.93
2017-06-24T07:38:34.461Z,1006
2017-06-24T07:39:15.001Z,1005.95
2017-06-24T07:39:55.517Z,1006.03
2017-06-24T07:40:35.999Z,1005.99
2017-06-24T07:41:16.514Z,1005.99
2017-06-24T07:41:57.014Z,1006.01
2017-06-24T07:42:37.522Z,1005.97
2017-06-24T07:43:18.030Z,1005.94
2017-06-24T07:43:58.579Z,1005.92
2017-06-24T07:44:39.144Z,1005.99
2017-06-24T07:45:19.655Z,1005.97
2017-06-24T07:46:01.016Z,1005.95
2017-06-24T07:46:41.513Z,1005.97
2017-06-24T07:47:22.018Z,1005.97
2017-06-24T07:48:02.524Z,1005.92
2017-06-24T07:48:43.028Z,1005.98
2017-06-24T07:49:23.586Z,1005.93
2017-06-24T07:50:04.126Z,1005.95
2017-06-24T07:50:44.647Z,1005.88
2017-06-24T07:51:25.219Z,1005.92
2017-06-24T07:52:05.800Z,1005.97
2017-06-24T07:52:46.313Z,1005.96
2017-06-24T07:53:26.896Z,1005.94
2017-06-24T07:55:26.433Z,1005.96
2017-06-24T07:56:06.906Z,1005.94
2017-06-24T07:56:47.480Z,1005.92
2017-06-24T07:57:28.048Z,1005.97
2017-06-24T07:58:08.776Z,1005.94
2017-06-24T07:58:49.317Z,1005.94
2017-06-24T07:59:29.919Z,1005.97
2017-06-24T08:00:10.440Z,1005.96
2017-06-24T08:00:51.047Z,1005.96
2017-06-24T08:01:31.606Z,1005.92
2017-06-24T08:02:12.227Z,1005.93
2017-06-24T08:02:52.870Z,1006
2017-06-24T08:03:33.394Z,1005.97
2017-06-24T08:04:13.904Z,1005.96
2017-06-24T08:06:43.779Z,1005.96
2017-06-24T08:07:24.340Z,1005.85
2017-06-24T08:08:04.934Z,1005.91
2017-06-24T08:08:45.562Z,1005.96
2017-06-24T08:09:26.322Z,1005.92
2017-06-24T08:10:06.928Z,1005.97
2017-06-24T08:10:47.490Z,1005.97
2017-06-24T08:11:28.096Z,1005.94
2017-06-24T08:12:08.675Z,1006
2017-06-24T08:12:49.307Z,1006.09
2017-06-24T08:13:29.844Z,1006.02
2017-06-24T08:14:10.497Z,1006
2017-06-24T08:14:51.047Z,1006.09
2017-06-24T08:15:31.590Z,1005.97
2017-06-24T08:16:12.087Z,1005.97
2017-06-24T08:16:52.604Z,1006.09
2017-06-24T08:17:33.174Z,1005.98
2017-06-24T08:18:13.693Z,1005.99
2017-06-24T08:18:54.245Z,1005.95